sensor_id;sensor_type;location;lat;lon;timestamp;temperature;humidity
21918;DHT22;11123;49.882;8.662;2022-09-09T00:00:13;18.70;15.60
21918;DHT22;11123;49.882;8.662;2022-09-09T00:02:47;18.60;17.40
21918;DHT22;11123;49.882;8.662;2022-09-09T00:05:25;18.60;20.00
21918;DHT22;11123;49.882;8.662;2022-09-09T00:07:58;18.60;19.60
21918;DHT22;11123;49.882;8.662;2022-09-09T00:10:33;18.60;21.70
21918;DHT22;11123;49.882;8.662;2022-09-09T00:13:08;18.60;19.70
21918;DHT22;11123;49.882;8.662;2022-09-09T00:15:49;18.60;21.60
21918;DHT22;11123;49.882;8.662;2022-09-09T00:18:25;18.60;22.90
21918;DHT22;11123;49.882;8.662;2022-09-09T00:21:01;18.60;22.60
21918;DHT22;11123;49.882;8.662;2022-09-09T00:23:34;18.60;23.00
21918;DHT22;11123;49.882;8.662;2022-09-09T00:26:09;18.60;26.30
21918;DHT22;11123;49.882;8.662;2022-09-09T00:28:44;18.60;25.10
21918;DHT22;11123;49.882;8.662;2022-09-09T00:31:19;18.60;20.60
21918;DHT22;11123;49.882;8.662;2022-09-09T00:33:49;18.60;23.10
21918;DHT22;11123;49.882;8.662;2022-09-09T00:36:23;18.60;21.00
21918;DHT22;11123;49.882;8.662;2022-09-09T00:38:55;18.60;23.50
21918;DHT22;11123;49.882;8.662;2022-09-09T00:41:36;18.60;21.30
21918;DHT22;11123;49.882;8.662;2022-09-09T00:44:16;18.70;21.60
21918;DHT22;11123;49.882;8.662;2022-09-09T00:46:56;18.70;23.80
21918;DHT22;11123;49.882;8.662;2022-09-09T00:49:36;18.60;25.00
21918;DHT22;11123;49.882;8.662;2022-09-09T00:52:19;18.70;22.50
21918;DHT22;11123;49.882;8.662;2022-09-09T00:54:56;18.70;23.10
21918;DHT22;11123;49.882;8.662;2022-09-09T00:57:28;18.70;21.20
21918;DHT22;11123;49.882;8.662;2022-09-09T01:03:25;18.70;20.20
21918;DHT22;11123;49.882;8.662;2022-09-09T01:06:02;18.80;21.00
21918;DHT22;11123;49.882;8.662;2022-09-09T01:11:29;18.70;19.40
21918;DHT22;11123;49.882;8.662;2022-09-09T01:14:13;18.70;16.50
21918;DHT22;11123;49.882;8.662;2022-09-09T01:16:43;18.70;20.50
21918;DHT22;11123;49.882;8.662;2022-09-09T01:19:20;18.70;19.90
21918;DHT22;11123;49.882;8.662;2022-09-09T01:22:00;18.70;19.00
21918;DHT22;11123;49.882;8.662;2022-09-09T01:24:40;18.70;22.10
21918;DHT22;11123;49.882;8.662;2022-09-09T01:27:18;18.70;21.20
21918;DHT22;11123;49.882;8.662;2022-09-09T01:29:48;18.70;22.10
21918;DHT22;11123;49.882;8.662;2022-09-09T01:32:38;18.60;22.90
21918;DHT22;11123;49.882;8.662;2022-09-09T01:35:11;18.60;23.10
21918;DHT22;11123;49.882;8.662;2022-09-09T01:37:41;18.60;24.70
21918;DHT22;11123;49.882;8.662;2022-09-09T01:40:10;18.60;26.00
21918;DHT22;11123;49.882;8.662;2022-09-09T01:42:40;18.60;25.70
21918;DHT22;11123;49.882;8.662;2022-09-09T01:45:09;18.60;27.00
21918;DHT22;11123;49.882;8.662;2022-09-09T01:47:37;18.60;29.10
21918;DHT22;11123;49.882;8.662;2022-09-09T01:50:19;18.50;33.70
21918;DHT22;11123;49.882;8.662;2022-09-09T01:52:51;18.50;37.10
21918;DHT22;11123;49.882;8.662;2022-09-09T01:55:29;18.40;39.90
21918;DHT22;11123;49.882;8.662;2022-09-09T01:58:12;18.40;40.40
21918;DHT22;11123;49.882;8.662;2022-09-09T02:00:54;18.40;47.00
21918;DHT22;11123;49.882;8.662;2022-09-09T02:03:28;18.40;48.00
21918;DHT22;11123;49.882;8.662;2022-09-09T02:06:11;18.40;50.90
21918;DHT22;11123;49.882;8.662;2022-09-09T02:08:47;18.40;54.60
21918;DHT22;11123;49.882;8.662;2022-09-09T02:11:18;18.40;54.90
21918;DHT22;11123;49.882;8.662;2022-09-09T02:14:00;18.30;57.40
21918;DHT22;11123;49.882;8.662;2022-09-09T02:16:34;18.30;58.40
21918;DHT22;11123;49.882;8.662;2022-09-09T02:19:08;18.30;60.60
21918;DHT22;11123;49.882;8.662;2022-09-09T02:21:56;18.30;67.20
21918;DHT22;11123;49.882;8.662;2022-09-09T02:24:27;18.30;64.70
21918;DHT22;11123;49.882;8.662;2022-09-09T02:27:11;18.30;62.80
21918;DHT22;11123;49.882;8.662;2022-09-09T02:29:42;18.30;64.40
21918;DHT22;11123;49.882;8.662;2022-09-09T02:32:17;18.30;68.00
21918;DHT22;11123;49.882;8.662;2022-09-09T02:34:49;18.30;62.60
21918;DHT22;11123;49.882;8.662;2022-09-09T02:37:20;18.30;59.50
21918;DHT22;11123;49.882;8.662;2022-09-09T02:39:52;18.30;61.60
21918;DHT22;11123;49.882;8.662;2022-09-09T02:42:22;18.30;64.70
21918;DHT22;11123;49.882;8.662;2022-09-09T02:44:54;18.30;60.90
21918;DHT22;11123;49.882;8.662;2022-09-09T02:47:28;18.30;60.70
21918;DHT22;11123;49.882;8.662;2022-09-09T02:50:08;18.30;64.30
21918;DHT22;11123;49.882;8.662;2022-09-09T02:52:56;18.30;68.70
21918;DHT22;11123;49.882;8.662;2022-09-09T02:55:37;18.30;69.20
21918;DHT22;11123;49.882;8.662;2022-09-09T02:58:10;18.30;70.90
21918;DHT22;11123;49.882;8.662;2022-09-09T03:00:43;18.20;74.00
21918;DHT22;11123;49.882;8.662;2022-09-09T03:03:12;18.20;73.30
21918;DHT22;11123;49.882;8.662;2022-09-09T03:05:42;18.20;76.10
21918;DHT22;11123;49.882;8.662;2022-09-09T03:08:12;18.30;75.80
21918;DHT22;11123;49.882;8.662;2022-09-09T03:10:42;18.20;77.10
21918;DHT22;11123;49.882;8.662;2022-09-09T03:13:13;18.20;75.80
21918;DHT22;11123;49.882;8.662;2022-09-09T03:15:44;18.20;82.60
21918;DHT22;11123;49.882;8.662;2022-09-09T03:18:15;18.10;87.00
21918;DHT22;11123;49.882;8.662;2022-09-09T03:20:48;18.10;91.20
21918;DHT22;11123;49.882;8.662;2022-09-09T03:23:17;18.00;94.50
21918;DHT22;11123;49.882;8.662;2022-09-09T03:25:48;18.00;93.70
21918;DHT22;11123;49.882;8.662;2022-09-09T03:28:20;18.00;94.50
21918;DHT22;11123;49.882;8.662;2022-09-09T03:30:51;18.10;93.60
21918;DHT22;11123;49.882;8.662;2022-09-09T03:33:20;18.00;93.20
21918;DHT22;11123;49.882;8.662;2022-09-09T03:35:49;18.00;96.80
21918;DHT22;11123;49.882;8.662;2022-09-09T03:38:19;18.00;95.80
21918;DHT22;11123;49.882;8.662;2022-09-09T03:40:49;18.00;95.70
21918;DHT22;11123;49.882;8.662;2022-09-09T03:43:18;17.90;99.90
21918;DHT22;11123;49.882;8.662;2022-09-09T03:45:47;17.90;98.90
21918;DHT22;11123;49.882;8.662;2022-09-09T03:48:18;18.00;99.10
21918;DHT22;11123;49.882;8.662;2022-09-09T03:50:47;17.90;99.90
21918;DHT22;11123;49.882;8.662;2022-09-09T03:53:18;17.90;99.90
21918;DHT22;11123;49.882;8.662;2022-09-09T03:55:48;17.90;99.90
21918;DHT22;11123;49.882;8.662;2022-09-09T03:58:18;17.90;99.90
21918;DHT22;11123;49.882;8.662;2022-09-09T04:00:53;17.80;99.90
21918;DHT22;11123;49.882;8.662;2022-09-09T04:03:24;17.80;99.90
21918;DHT22;11123;49.882;8.662;2022-09-09T04:05:56;17.80;99.90
21918;DHT22;11123;49.882;8.662;2022-09-09T04:08:27;17.80;99.90
21918;DHT22;11123;49.882;8.662;2022-09-09T04:10:55;17.70;99.90
21918;DHT22;11123;49.882;8.662;2022-09-09T04:13:26;17.70;99.90
21918;DHT22;11123;49.882;8.662;2022-09-09T04:15:58;17.70;99.90
21918;DHT22;11123;49.882;8.662;2022-09-09T04:18:28;17.70;99.90
21918;DHT22;11123;49.882;8.662;2022-09-09T04:20:57;17.70;99.90
21918;DHT22;11123;49.882;8.662;2022-09-09T04:23:28;17.70;99.90
21918;DHT22;11123;49.882;8.662;2022-09-09T04:25:59;17.70;99.90
21918;DHT22;11123;49.882;8.662;2022-09-09T04:28:30;17.70;99.90
21918;DHT22;11123;49.882;8.662;2022-09-09T04:31:04;17.70;99.90
21918;DHT22;11123;49.882;8.662;2022-09-09T04:33:35;17.70;99.90
21918;DHT22;11123;49.882;8.662;2022-09-09T04:36:09;17.70;99.90
21918;DHT22;11123;49.882;8.662;2022-09-09T04:38:37;17.70;99.90
21918;DHT22;11123;49.882;8.662;2022-09-09T04:41:06;17.60;99.90
21918;DHT22;11123;49.882;8.662;2022-09-09T04:43:40;17.60;99.90
21918;DHT22;11123;49.882;8.662;2022-09-09T04:46:08;17.60;99.90
21918;DHT22;11123;49.882;8.662;2022-09-09T04:48:38;17.60;99.90
21918;DHT22;11123;49.882;8.662;2022-09-09T04:51:11;17.60;99.90
21918;DHT22;11123;49.882;8.662;2022-09-09T04:53:40;17.60;99.90
21918;DHT22;11123;49.882;8.662;2022-09-09T04:56:10;17.60;99.90
21918;DHT22;11123;49.882;8.662;2022-09-09T04:58:43;17.60;99.90
21918;DHT22;11123;49.882;8.662;2022-09-09T05:01:14;17.60;99.90
21918;DHT22;11123;49.882;8.662;2022-09-09T05:03:46;17.60;99.90
21918;DHT22;11123;49.882;8.662;2022-09-09T05:06:21;17.60;99.90
21918;DHT22;11123;49.882;8.662;2022-09-09T05:08:54;17.60;99.90
21918;DHT22;11123;49.882;8.662;2022-09-09T05:11:27;17.50;99.90
21918;DHT22;11123;49.882;8.662;2022-09-09T05:14:00;17.50;99.90
21918;DHT22;11123;49.882;8.662;2022-09-09T05:16:30;17.50;99.90
21918;DHT22;11123;49.882;8.662;2022-09-09T05:19:00;17.50;99.90
21918;DHT22;11123;49.882;8.662;2022-09-09T05:21:45;17.50;99.90
21918;DHT22;11123;49.882;8.662;2022-09-09T05:25:03;17.50;99.90
21918;DHT22;11123;49.882;8.662;2022-09-09T05:27:33;17.50;99.90
21918;DHT22;11123;49.882;8.662;2022-09-09T05:30:01;17.50;99.90
21918;DHT22;11123;49.882;8.662;2022-09-09T05:32:31;17.50;99.90
21918;DHT22;11123;49.882;8.662;2022-09-09T05:35:02;17.50;99.90
21918;DHT22;11123;49.882;8.662;2022-09-09T05:37:32;17.50;99.90
21918;DHT22;11123;49.882;8.662;2022-09-09T05:40:00;17.50;99.90
21918;DHT22;11123;49.882;8.662;2022-09-09T05:42:30;17.50;99.90
21918;DHT22;11123;49.882;8.662;2022-09-09T05:44:59;17.50;99.90
21918;DHT22;11123;49.882;8.662;2022-09-09T05:47:27;17.50;99.90
21918;DHT22;11123;49.882;8.662;2022-09-09T05:49:57;17.50;99.90
21918;DHT22;11123;49.882;8.662;2022-09-09T05:52:27;17.50;99.90
21918;DHT22;11123;49.882;8.662;2022-09-09T05:54:57;17.50;99.90
21918;DHT22;11123;49.882;8.662;2022-09-09T05:57:26;17.50;99.90
21918;DHT22;11123;49.882;8.662;2022-09-09T05:59:54;17.50;99.90
21918;DHT22;11123;49.882;8.662;2022-09-09T06:02:23;17.40;99.90
21918;DHT22;11123;49.882;8.662;2022-09-09T06:04:52;17.40;99.90
21918;DHT22;11123;49.882;8.662;2022-09-09T06:07:29;17.40;99.90
21918;DHT22;11123;49.882;8.662;2022-09-09T06:09:57;17.40;99.90
21918;DHT22;11123;49.882;8.662;2022-09-09T06:12:26;17.40;99.90
21918;DHT22;11123;49.882;8.662;2022-09-09T06:14:54;17.50;99.90
21918;DHT22;11123;49.882;8.662;2022-09-09T06:17:22;17.50;99.90
21918;DHT22;11123;49.882;8.662;2022-09-09T06:19:51;17.60;99.90
21918;DHT22;11123;49.882;8.662;2022-09-09T06:22:20;17.60;99.90
21918;DHT22;11123;49.882;8.662;2022-09-09T06:24:50;17.60;99.90
21918;DHT22;11123;49.882;8.662;2022-09-09T06:27:18;17.70;99.90
21918;DHT22;11123;49.882;8.662;2022-09-09T06:29:47;17.70;99.90
21918;DHT22;11123;49.882;8.662;2022-09-09T06:32:16;17.80;99.90
21918;DHT22;11123;49.882;8.662;2022-09-09T06:34:45;17.80;99.90
21918;DHT22;11123;49.882;8.662;2022-09-09T06:37:16;17.90;99.90
21918;DHT22;11123;49.882;8.662;2022-09-09T06:39:47;17.80;99.90
21918;DHT22;11123;49.882;8.662;2022-09-09T06:42:18;17.80;99.90
21918;DHT22;11123;49.882;8.662;2022-09-09T06:44:49;17.90;99.90
21918;DHT22;11123;49.882;8.662;2022-09-09T06:47:24;17.90;99.90
21918;DHT22;11123;49.882;8.662;2022-09-09T06:49:56;17.90;99.90
21918;DHT22;11123;49.882;8.662;2022-09-09T06:52:25;17.90;99.90
21918;DHT22;11123;49.882;8.662;2022-09-09T06:54:55;17.90;99.90
21918;DHT22;11123;49.882;8.662;2022-09-09T06:57:26;17.90;99.90
21918;DHT22;11123;49.882;8.662;2022-09-09T07:00:13;17.90;99.90
21918;DHT22;11123;49.882;8.662;2022-09-09T07:02:42;18.00;99.90
21918;DHT22;11123;49.882;8.662;2022-09-09T07:05:12;18.10;99.90
21918;DHT22;11123;49.882;8.662;2022-09-09T07:07:43;18.10;99.90
21918;DHT22;11123;49.882;8.662;2022-09-09T07:10:13;18.10;99.90
21918;DHT22;11123;49.882;8.662;2022-09-09T07:12:44;18.10;99.90
21918;DHT22;11123;49.882;8.662;2022-09-09T07:15:13;18.10;99.90
21918;DHT22;11123;49.882;8.662;2022-09-09T07:17:45;18.10;99.90
21918;DHT22;11123;49.882;8.662;2022-09-09T07:20:14;18.10;99.90
21918;DHT22;11123;49.882;8.662;2022-09-09T07:22:43;18.10;99.90
21918;DHT22;11123;49.882;8.662;2022-09-09T07:25:12;18.00;99.90
21918;DHT22;11123;49.882;8.662;2022-09-09T07:27:41;18.00;99.90
21918;DHT22;11123;49.882;8.662;2022-09-09T07:30:12;18.00;99.90
21918;DHT22;11123;49.882;8.662;2022-09-09T07:32:51;18.00;99.90
21918;DHT22;11123;49.882;8.662;2022-09-09T07:35:19;18.00;99.90
21918;DHT22;11123;49.882;8.662;2022-09-09T07:37:48;18.00;99.90
21918;DHT22;11123;49.882;8.662;2022-09-09T07:40:19;18.00;99.90
21918;DHT22;11123;49.882;8.662;2022-09-09T07:42:49;17.90;99.90
21918;DHT22;11123;49.882;8.662;2022-09-09T07:45:18;18.00;99.90
21918;DHT22;11123;49.882;8.662;2022-09-09T07:47:47;18.10;99.90
21918;DHT22;11123;49.882;8.662;2022-09-09T07:50:16;18.00;99.90
21918;DHT22;11123;49.882;8.662;2022-09-09T07:52:45;18.10;99.90
21918;DHT22;11123;49.882;8.662;2022-09-09T07:55:14;18.30;99.90
21918;DHT22;11123;49.882;8.662;2022-09-09T07:57:43;18.40;99.90
21918;DHT22;11123;49.882;8.662;2022-09-09T08:00:13;18.40;99.90
21918;DHT22;11123;49.882;8.662;2022-09-09T08:02:49;18.40;98.30
21918;DHT22;11123;49.882;8.662;2022-09-09T08:05:18;18.50;96.60
21918;DHT22;11123;49.882;8.662;2022-09-09T08:07:48;18.50;99.60
21918;DHT22;11123;49.882;8.662;2022-09-09T08:10:16;18.50;95.20
21918;DHT22;11123;49.882;8.662;2022-09-09T08:12:47;18.60;95.20
21918;DHT22;11123;49.882;8.662;2022-09-09T08:15:36;18.60;92.10
21918;DHT22;11123;49.882;8.662;2022-09-09T08:18:06;18.70;93.40
21918;DHT22;11123;49.882;8.662;2022-09-09T08:20:36;18.80;80.90
21918;DHT22;11123;49.882;8.662;2022-09-09T08:23:06;18.80;78.70
21918;DHT22;11123;49.882;8.662;2022-09-09T08:25:34;18.70;84.90
21918;DHT22;11123;49.882;8.662;2022-09-09T08:28:03;18.70;87.00
21918;DHT22;11123;49.882;8.662;2022-09-09T08:30:31;18.80;84.40
21918;DHT22;11123;49.882;8.662;2022-09-09T08:33:00;18.80;72.10
21918;DHT22;11123;49.882;8.662;2022-09-09T08:35:31;18.70;83.70
21918;DHT22;11123;49.882;8.662;2022-09-09T08:38:00;18.50;97.30
21918;DHT22;11123;49.882;8.662;2022-09-09T08:40:38;18.40;93.70
21918;DHT22;11123;49.882;8.662;2022-09-09T08:43:11;18.50;96.60
21918;DHT22;11123;49.882;8.662;2022-09-09T08:45:49;18.60;92.80
21918;DHT22;11123;49.882;8.662;2022-09-09T08:48:32;18.70;89.10
21918;DHT22;11123;49.882;8.662;2022-09-09T08:51:06;18.80;68.70
21918;DHT22;11123;49.882;8.662;2022-09-09T08:53:41;18.60;69.30
21918;DHT22;11123;49.882;8.662;2022-09-09T08:56:14;18.40;88.80
21918;DHT22;11123;49.882;8.662;2022-09-09T08:58:47;18.50;82.90
21918;DHT22;11123;49.882;8.662;2022-09-09T09:01:41;18.60;80.40
21918;DHT22;11123;49.882;8.662;2022-09-09T09:04:30;18.70;70.00
21918;DHT22;11123;49.882;8.662;2022-09-09T09:07:09;18.70;63.30
21918;DHT22;11123;49.882;8.662;2022-09-09T09:09:51;18.80;82.60
21918;DHT22;11123;49.882;8.662;2022-09-09T09:12:29;18.70;99.90
21918;DHT22;11123;49.882;8.662;2022-09-09T09:15:01;18.50;99.90
21918;DHT22;11123;49.882;8.662;2022-09-09T09:17:37;18.10;99.90
21918;DHT22;11123;49.882;8.662;2022-09-09T09:20:12;17.60;99.90
21918;DHT22;11123;49.882;8.662;2022-09-09T09:22:48;17.30;99.90
21918;DHT22;11123;49.882;8.662;2022-09-09T09:25:19;17.10;99.90
21918;DHT22;11123;49.882;8.662;2022-09-09T09:27:55;17.10;99.90
21918;DHT22;11123;49.882;8.662;2022-09-09T09:30:32;17.00;99.90
21918;DHT22;11123;49.882;8.662;2022-09-09T09:33:14;17.00;99.90
21918;DHT22;11123;49.882;8.662;2022-09-09T09:35:43;17.20;99.90
21918;DHT22;11123;49.882;8.662;2022-09-09T09:38:19;17.30;99.90
21918;DHT22;11123;49.882;8.662;2022-09-09T09:41:09;17.50;99.90
21918;DHT22;11123;49.882;8.662;2022-09-09T09:43:40;17.70;99.90
21918;DHT22;11123;49.882;8.662;2022-09-09T09:46:19;17.80;99.90
21918;DHT22;11123;49.882;8.662;2022-09-09T09:48:58;18.00;99.90
21918;DHT22;11123;49.882;8.662;2022-09-09T09:51:29;18.00;99.90
21918;DHT22;11123;49.882;8.662;2022-09-09T09:54:09;18.30;99.90
21918;DHT22;11123;49.882;8.662;2022-09-09T09:56:46;18.50;99.90
21918;DHT22;11123;49.882;8.662;2022-09-09T09:59:32;18.80;99.90
21918;DHT22;11123;49.882;8.662;2022-09-09T10:02:18;18.90;99.90
21918;DHT22;11123;49.882;8.662;2022-09-09T10:05:02;19.10;99.90
21918;DHT22;11123;49.882;8.662;2022-09-09T10:07:34;19.20;76.80
21918;DHT22;11123;49.882;8.662;2022-09-09T10:10:10;19.30;52.10
21918;DHT22;11123;49.882;8.662;2022-09-09T10:12:47;19.30;57.30
21918;DHT22;11123;49.882;8.662;2022-09-09T10:15:31;19.50;53.30
21918;DHT22;11123;49.882;8.662;2022-09-09T10:18:13;19.70;46.60
21918;DHT22;11123;49.882;8.662;2022-09-09T10:20:52;19.90;49.10
21918;DHT22;11123;49.882;8.662;2022-09-09T10:23:33;20.00;47.60
21918;DHT22;11123;49.882;8.662;2022-09-09T10:26:27;20.10;55.80
21918;DHT22;11123;49.882;8.662;2022-09-09T10:29:21;20.10;71.00
21918;DHT22;11123;49.882;8.662;2022-09-09T10:32:02;19.90;55.60
21918;DHT22;11123;49.882;8.662;2022-09-09T10:34:50;19.60;46.50
21918;DHT22;11123;49.882;8.662;2022-09-09T10:37:37;19.50;39.10
21918;DHT22;11123;49.882;8.662;2022-09-09T10:40:21;19.40;27.20
21918;DHT22;11123;49.882;8.662;2022-09-09T10:42:55;19.40;35.50
21918;DHT22;11123;49.882;8.662;2022-09-09T10:45:30;19.10;94.20
21918;DHT22;11123;49.882;8.662;2022-09-09T10:48:24;18.60;99.90
21918;DHT22;11123;49.882;8.662;2022-09-09T10:51:14;18.00;99.90
21918;DHT22;11123;49.882;8.662;2022-09-09T10:53:53;17.60;99.90
21918;DHT22;11123;49.882;8.662;2022-09-09T10:56:28;17.30;99.90
21918;DHT22;11123;49.882;8.662;2022-09-09T10:59:00;17.10;99.90
21918;DHT22;11123;49.882;8.662;2022-09-09T11:01:32;17.00;99.90
21918;DHT22;11123;49.882;8.662;2022-09-09T11:04:10;17.00;99.90
21918;DHT22;11123;49.882;8.662;2022-09-09T11:06:45;17.00;99.90
21918;DHT22;11123;49.882;8.662;2022-09-09T11:09:21;17.20;99.90
21918;DHT22;11123;49.882;8.662;2022-09-09T11:11:53;17.20;99.90
21918;DHT22;11123;49.882;8.662;2022-09-09T11:14:28;17.10;99.90
21918;DHT22;11123;49.882;8.662;2022-09-09T11:17:06;17.00;99.90
21918;DHT22;11123;49.882;8.662;2022-09-09T11:19:39;17.00;99.90
21918;DHT22;11123;49.882;8.662;2022-09-09T11:22:16;17.00;99.90
21918;DHT22;11123;49.882;8.662;2022-09-09T11:24:48;17.00;99.90
21918;DHT22;11123;49.882;8.662;2022-09-09T11:27:21;17.00;99.90
21918;DHT22;11123;49.882;8.662;2022-09-09T11:30:19;17.10;99.90
21918;DHT22;11123;49.882;8.662;2022-09-09T11:36:49;18.10;99.90
21918;DHT22;11123;49.882;8.662;2022-09-09T11:39:48;18.20;99.90
21918;DHT22;11123;49.882;8.662;2022-09-09T11:42:21;18.00;99.90
21918;DHT22;11123;49.882;8.662;2022-09-09T11:44:50;18.00;99.90
21918;DHT22;11123;49.882;8.662;2022-09-09T11:47:24;18.10;99.90
21918;DHT22;11123;49.882;8.662;2022-09-09T11:50:08;18.10;99.90
21918;DHT22;11123;49.882;8.662;2022-09-09T11:52:41;18.20;99.90
21918;DHT22;11123;49.882;8.662;2022-09-09T11:55:25;18.20;99.90
21918;DHT22;11123;49.882;8.662;2022-09-09T11:57:58;18.30;99.90
21918;DHT22;11123;49.882;8.662;2022-09-09T12:00:34;18.40;99.90
21918;DHT22;11123;49.882;8.662;2022-09-09T12:03:06;18.50;99.90
21918;DHT22;11123;49.882;8.662;2022-09-09T12:05:37;18.70;99.90
21918;DHT22;11123;49.882;8.662;2022-09-09T12:08:10;18.80;99.90
21918;DHT22;11123;49.882;8.662;2022-09-09T12:10:39;18.80;99.90
21918;DHT22;11123;49.882;8.662;2022-09-09T12:13:16;18.90;99.90
21918;DHT22;11123;49.882;8.662;2022-09-09T12:15:49;18.90;99.90
21918;DHT22;11123;49.882;8.662;2022-09-09T12:18:24;19.00;99.90
21918;DHT22;11123;49.882;8.662;2022-09-09T12:21:00;19.20;99.90
21918;DHT22;11123;49.882;8.662;2022-09-09T12:23:40;19.50;99.90
21918;DHT22;11123;49.882;8.662;2022-09-09T12:26:22;19.70;76.10
21918;DHT22;11123;49.882;8.662;2022-09-09T12:29:05;19.70;89.50
21918;DHT22;11123;49.882;8.662;2022-09-09T12:31:43;19.70;92.80
21918;DHT22;11123;49.882;8.662;2022-09-09T12:34:17;19.60;74.70
21918;DHT22;11123;49.882;8.662;2022-09-09T12:36:52;19.60;42.50
21918;DHT22;11123;49.882;8.662;2022-09-09T12:39:28;19.60;51.90
21918;DHT22;11123;49.882;8.662;2022-09-09T12:41:59;19.50;40.20
21918;DHT22;11123;49.882;8.662;2022-09-09T12:44:27;19.50;41.70
21918;DHT22;11123;49.882;8.662;2022-09-09T12:46:58;19.60;41.90
21918;DHT22;11123;49.882;8.662;2022-09-09T12:49:34;19.60;11.10
21918;DHT22;11123;49.882;8.662;2022-09-09T12:52:05;19.70;14.10
21918;DHT22;11123;49.882;8.662;2022-09-09T12:54:36;19.70;1.00
21918;DHT22;11123;49.882;8.662;2022-09-09T12:57:10;19.60;2.80
21918;DHT22;11123;49.882;8.662;2022-09-09T12:59:40;19.60;1.00
21918;DHT22;11123;49.882;8.662;2022-09-09T13:02:18;19.70;1.00
21918;DHT22;11123;49.882;8.662;2022-09-09T13:04:49;19.70;1.00
21918;DHT22;11123;49.882;8.662;2022-09-09T13:07:18;19.70;1.00
21918;DHT22;11123;49.882;8.662;2022-09-09T13:09:49;19.70;1.00
21918;DHT22;11123;49.882;8.662;2022-09-09T13:12:19;19.70;1.00
21918;DHT22;11123;49.882;8.662;2022-09-09T13:14:51;19.70;1.00
21918;DHT22;11123;49.882;8.662;2022-09-09T13:17:22;19.50;1.00
21918;DHT22;11123;49.882;8.662;2022-09-09T13:19:52;19.30;1.00
21918;DHT22;11123;49.882;8.662;2022-09-09T13:22:28;19.10;1.00
21918;DHT22;11123;49.882;8.662;2022-09-09T13:25:03;19.00;1.00
21918;DHT22;11123;49.882;8.662;2022-09-09T13:27:34;18.90;3.60
21918;DHT22;11123;49.882;8.662;2022-09-09T13:30:27;18.80;1.00
21918;DHT22;11123;49.882;8.662;2022-09-09T13:33:20;18.70;1.00
21918;DHT22;11123;49.882;8.662;2022-09-09T13:35:54;18.80;1.00
21918;DHT22;11123;49.882;8.662;2022-09-09T13:38:23;18.60;1.00
21918;DHT22;11123;49.882;8.662;2022-09-09T13:40:58;18.40;1.00
21918;DHT22;11123;49.882;8.662;2022-09-09T13:43:30;18.40;3.90
21918;DHT22;11123;49.882;8.662;2022-09-09T13:46:01;18.30;1.00
21918;DHT22;11123;49.882;8.662;2022-09-09T13:48:29;18.30;3.30
21918;DHT22;11123;49.882;8.662;2022-09-09T13:51:02;18.30;5.90
21918;DHT22;11123;49.882;8.662;2022-09-09T13:53:32;18.50;1.20
21918;DHT22;11123;49.882;8.662;2022-09-09T13:56:01;18.80;1.00
21918;DHT22;11123;49.882;8.662;2022-09-09T13:58:29;19.10;19.40
21918;DHT22;11123;49.882;8.662;2022-09-09T14:00:57;19.20;29.50
21918;DHT22;11123;49.882;8.662;2022-09-09T14:03:26;19.60;2.90
21918;DHT22;11123;49.882;8.662;2022-09-09T14:05:54;19.70;1.00
21918;DHT22;11123;49.882;8.662;2022-09-09T14:08:26;20.00;1.00
21918;DHT22;11123;49.882;8.662;2022-09-09T14:11:05;19.90;6.60
21918;DHT22;11123;49.882;8.662;2022-09-09T14:13:33;19.10;28.60
21918;DHT22;11123;49.882;8.662;2022-09-09T14:16:04;19.30;26.30
21918;DHT22;11123;49.882;8.662;2022-09-09T14:18:33;19.70;9.90
21918;DHT22;11123;49.882;8.662;2022-09-09T14:21:02;20.40;1.00
21918;DHT22;11123;49.882;8.662;2022-09-09T14:23:33;20.60;1.00
21918;DHT22;11123;49.882;8.662;2022-09-09T14:26:01;20.50;1.00
21918;DHT22;11123;49.882;8.662;2022-09-09T14:28:30;20.50;1.00
21918;DHT22;11123;49.882;8.662;2022-09-09T14:31:20;20.30;2.10
21918;DHT22;11123;49.882;8.662;2022-09-09T14:33:48;20.10;8.70
21918;DHT22;11123;49.882;8.662;2022-09-09T14:36:18;20.00;8.30
21918;DHT22;11123;49.882;8.662;2022-09-09T14:38:48;19.90;15.20
21918;DHT22;11123;49.882;8.662;2022-09-09T14:41:18;19.90;20.20
21918;DHT22;11123;49.882;8.662;2022-09-09T14:43:48;19.80;15.60
21918;DHT22;11123;49.882;8.662;2022-09-09T14:46:17;19.70;24.40
21918;DHT22;11123;49.882;8.662;2022-09-09T14:48:46;19.20;40.10
21918;DHT22;11123;49.882;8.662;2022-09-09T14:51:17;19.20;24.30
21918;DHT22;11123;49.882;8.662;2022-09-09T14:53:50;19.30;24.10
21918;DHT22;11123;49.882;8.662;2022-09-09T14:56:21;19.20;38.50
21918;DHT22;11123;49.882;8.662;2022-09-09T14:58:50;19.10;40.60
21918;DHT22;11123;49.882;8.662;2022-09-09T15:01:19;19.20;20.70
21918;DHT22;11123;49.882;8.662;2022-09-09T15:03:50;19.30;14.30
21918;DHT22;11123;49.882;8.662;2022-09-09T15:06:20;19.30;19.20
21918;DHT22;11123;49.882;8.662;2022-09-09T15:08:51;19.30;22.40
21918;DHT22;11123;49.882;8.662;2022-09-09T15:11:20;19.40;14.30
21918;DHT22;11123;49.882;8.662;2022-09-09T15:13:51;19.40;12.50
21918;DHT22;11123;49.882;8.662;2022-09-09T15:16:21;19.40;3.90
21918;DHT22;11123;49.882;8.662;2022-09-09T15:18:51;19.40;16.10
21918;DHT22;11123;49.882;8.662;2022-09-09T15:21:22;19.40;17.00
21918;DHT22;11123;49.882;8.662;2022-09-09T15:23:53;19.40;9.00
21918;DHT22;11123;49.882;8.662;2022-09-09T15:26:22;19.40;8.50
21918;DHT22;11123;49.882;8.662;2022-09-09T15:28:51;19.50;5.50
21918;DHT22;11123;49.882;8.662;2022-09-09T15:31:20;19.50;6.40
21918;DHT22;11123;49.882;8.662;2022-09-09T15:33:50;19.30;14.70
21918;DHT22;11123;49.882;8.662;2022-09-09T15:36:21;19.20;19.90
21918;DHT22;11123;49.882;8.662;2022-09-09T15:38:51;19.20;24.80
21918;DHT22;11123;49.882;8.662;2022-09-09T15:41:22;19.30;21.80
21918;DHT22;11123;49.882;8.662;2022-09-09T15:43:51;19.40;16.50
21918;DHT22;11123;49.882;8.662;2022-09-09T15:46:27;19.50;19.70
21918;DHT22;11123;49.882;8.662;2022-09-09T15:48:58;19.60;16.00
21918;DHT22;11123;49.882;8.662;2022-09-09T15:51:26;19.60;17.10
21918;DHT22;11123;49.882;8.662;2022-09-09T15:54:13;19.70;12.30
21918;DHT22;11123;49.882;8.662;2022-09-09T15:56:46;19.90;9.20
21918;DHT22;11123;49.882;8.662;2022-09-09T15:59:15;20.00;7.70
21918;DHT22;11123;49.882;8.662;2022-09-09T16:01:44;20.10;4.80
21918;DHT22;11123;49.882;8.662;2022-09-09T16:04:12;19.90;6.10
21918;DHT22;11123;49.882;8.662;2022-09-09T16:06:42;19.90;6.90
21918;DHT22;11123;49.882;8.662;2022-09-09T16:09:11;19.90;9.90
21918;DHT22;11123;49.882;8.662;2022-09-09T16:11:40;19.70;15.80
21918;DHT22;11123;49.882;8.662;2022-09-09T16:14:09;19.70;21.90
21918;DHT22;11123;49.882;8.662;2022-09-09T16:16:38;19.70;15.10
21918;DHT22;11123;49.882;8.662;2022-09-09T16:19:09;19.70;11.40
21918;DHT22;11123;49.882;8.662;2022-09-09T16:21:41;19.70;1.00